createdAt,value
2018-11-07T00:00:03.048Z,8.86
2018-11-07T00:02:32.169Z,8.80
2018-11-07T00:05:01.242Z,8.66
2018-11-07T00:07:30.315Z,8.55
2018-11-07T00:09:59.378Z,8.42
2018-11-07T00:12:28.460Z,8.39
2018-11-07T00:14:57.509Z,8.33
2018-11-07T00:17:26.556Z,8.37
2018-11-07T00:19:55.666Z,8.30
2018-11-07T00:22:24.753Z,8.18
2018-11-07T00:24:53.805Z,8.33
2018-11-07T00:27:22.896Z,8.49
2018-11-07T00:29:52.015Z,8.54
2018-11-07T00:32:21.089Z,8.51
2018-11-07T00:34:50.181Z,8.53
2018-11-07T00:39:54.935Z,8.76
2018-11-07T00:44:59.695Z,8.71
2018-11-07T00:47:28.752Z,8.67
2018-11-07T00:49:57.817Z,8.62
2018-11-07T00:55:02.682Z,8.57
2018-11-07T01:00:07.545Z,8.36
2018-11-07T01:02:37.565Z,8.20
2018-11-07T01:05:06.642Z,8.04
2018-11-07T01:07:35.688Z,7.89
2018-11-07T01:10:04.755Z,7.90
2018-11-07T01:12:33.809Z,7.89
2018-11-07T01:15:02.936Z,7.88
2018-11-07T01:17:31.989Z,7.78
2018-11-07T01:20:01.170Z,7.85
2018-11-07T01:22:30.231Z,7.76
2018-11-07T01:24:59.282Z,7.69
2018-11-07T01:27:28.397Z,7.61
2018-11-07T01:32:33.146Z,7.67
2018-11-07T01:37:37.892Z,7.58
2018-11-07T01:40:06.947Z,7.50
2018-11-07T01:42:36.001Z,7.48
2018-11-07T01:45:05.052Z,7.50
2018-11-07T01:47:34.106Z,7.62
2018-11-07T01:50:03.153Z,7.63
2018-11-07T01:52:33.191Z,7.51
2018-11-07T01:55:02.290Z,7.56
2018-11-07T01:57:31.309Z,7.75
2018-11-07T02:00:00.371Z,7.44
2018-11-07T02:02:29.404Z,7.20
2018-11-07T02:04:58.456Z,6.83
2018-11-07T02:07:27.505Z,6.86
2018-11-07T02:12:32.293Z,6.98
2018-11-07T02:15:01.323Z,6.97
2018-11-07T02:17:30.387Z,7.16
2018-11-07T02:22:35.199Z,7.17
2018-11-07T02:27:39.970Z,7.17
2018-11-07T02:30:09.005Z,6.95
2018-11-07T02:32:38.057Z,6.92
2018-11-07T02:35:08.211Z,6.87
2018-11-07T02:37:37.257Z,6.86
2018-11-07T02:40:06.320Z,6.77
2018-11-07T02:42:35.381Z,6.93
2018-11-07T02:45:04.435Z,6.87
2018-11-07T02:47:33.489Z,6.81
2018-11-07T02:50:04.465Z,6.85
2018-11-07T02:52:33.516Z,6.83
2018-11-07T02:55:02.570Z,6.93
2018-11-07T02:57:31.647Z,6.98
2018-11-07T03:02:36.450Z,7.06
2018-11-07T03:05:05.505Z,7.09
2018-11-07T03:07:34.543Z,7.04
2018-11-07T03:14:09.427Z,6.81
2018-11-07T03:16:38.453Z,6.74
2018-11-07T03:21:43.209Z,6.99
2018-11-07T03:29:24.621Z,7.05
2018-11-07T03:34:29.426Z,6.95
2018-11-07T03:36:58.473Z,6.64
2018-11-07T03:39:27.538Z,6.51
2018-11-07T03:41:56.597Z,6.44
2018-11-07T03:44:25.753Z,6.33
2018-11-07T03:46:54.797Z,6.34
2018-11-07T03:49:23.858Z,6.41
2018-11-07T03:51:52.909Z,6.40
2018-11-07T03:57:00.236Z,6.37
2018-11-07T03:59:29.284Z,6.40
2018-11-07T04:01:58.340Z,6.50
2018-11-07T04:04:27.397Z,6.11
2018-11-07T04:06:56.489Z,5.94
2018-11-07T04:09:25.567Z,5.89
2018-11-07T04:11:54.632Z,5.76
2018-11-07T04:14:24.561Z,5.65
2018-11-07T04:16:53.623Z,5.53
2018-11-07T04:19:24.605Z,5.30
2018-11-07T04:21:53.651Z,5.17
2018-11-07T04:24:22.696Z,5.09
2018-11-07T04:26:53.738Z,5.20
2018-11-07T04:29:23.756Z,5.26
2018-11-07T04:31:52.957Z,5.52
2018-11-07T04:34:22.013Z,5.64
2018-11-07T04:36:51.071Z,5.52
2018-11-07T04:39:20.134Z,5.64
2018-11-07T04:41:49.188Z,5.67
2018-11-07T04:44:19.163Z,5.71
2018-11-07T04:46:48.207Z,5.67
2018-11-07T04:49:17.261Z,5.46
2018-11-07T04:51:48.302Z,5.26
2018-11-07T04:56:53.069Z,5.26
2018-11-07T05:01:57.857Z,5.01
2018-11-07T05:04:26.893Z,5.04
2018-11-07T05:06:55.961Z,5.09
2018-11-07T05:09:25.010Z,5.23
2018-11-07T05:11:54.097Z,5.53
2018-11-07T05:14:23.133Z,5.68
2018-11-07T05:16:52.245Z,5.79
2018-11-07T05:19:21.307Z,5.85
2018-11-07T05:21:50.358Z,5.58
2018-11-07T05:24:19.412Z,5.43
2018-11-07T05:26:48.477Z,5.15
2018-11-07T05:29:17.520Z,4.75
2018-11-07T05:31:46.694Z,4.64
2018-11-07T05:36:51.397Z,4.61
2018-11-07T05:39:20.449Z,4.68
2018-11-07T05:41:49.497Z,4.87
2018-11-07T05:44:18.565Z,4.77
2018-11-07T05:46:47.629Z,4.83
2018-11-07T05:51:52.453Z,4.65
2018-11-07T05:54:21.501Z,4.58
2018-11-07T05:56:58.213Z,4.56
2018-11-07T05:59:43.341Z,4.66
2018-11-07T06:02:22.257Z,4.77
2018-11-07T06:05:02.232Z,4.80
2018-11-07T06:07:31.459Z,4.88
2018-11-07T06:10:00.661Z,4.70
2018-11-07T06:12:29.689Z,4.61
2018-11-07T06:14:58.741Z,4.57
2018-11-07T06:17:27.793Z,4.47
2018-11-07T06:22:32.609Z,4.59
2018-11-07T06:25:01.830Z,4.54
2018-11-07T06:27:30.777Z,4.58
2018-11-07T06:30:01.794Z,4.58
2018-11-07T06:32:30.835Z,4.54
2018-11-07T06:34:59.897Z,4.59
2018-11-07T06:37:28.934Z,4.69
2018-11-07T06:39:58.896Z,4.67
2018-11-07T06:42:27.948Z,4.73
2018-11-07T06:44:56.997Z,4.79
2018-11-07T06:47:26.249Z,4.78
2018-11-07T06:49:55.315Z,4.83
2018-11-07T06:52:24.445Z,4.85
2018-11-07T06:54:53.517Z,4.50
2018-11-07T06:57:22.565Z,4.49
2018-11-07T06:59:51.630Z,4.55
2018-11-07T07:02:20.713Z,4.63
2018-11-07T07:04:53.276Z,4.73
2018-11-07T07:09:59.050Z,4.79
2018-11-07T07:12:28.184Z,4.82
2018-11-07T07:14:57.231Z,4.94
2018-11-07T07:17:26.317Z,5.06
2018-11-07T07:19:55.351Z,5.20
2018-11-07T07:22:24.407Z,5.26
2018-11-07T07:27:29.163Z,5.51
2018-11-07T07:29:58.271Z,5.71
2018-11-07T07:32:27.260Z,5.75
2018-11-07T07:34:56.329Z,5.77
2018-11-07T07:37:27.367Z,5.89
2018-11-07T07:39:56.416Z,5.90
2018-11-07T07:42:25.461Z,6.00
2018-11-07T07:44:55.018Z,6.13
2018-11-07T07:49:59.792Z,6.50
2018-11-07T07:52:29.088Z,6.67
2018-11-07T07:54:58.200Z,6.76
2018-11-07T07:57:27.335Z,6.88
2018-11-07T07:59:56.392Z,7.06
2018-11-07T08:02:25.452Z,7.19
2018-11-07T08:04:54.651Z,7.14
2018-11-07T08:07:23.664Z,7.32
2018-11-07T08:09:52.770Z,7.50
2018-11-07T08:12:21.838Z,7.84
2018-11-07T08:14:50.943Z,8.05
2018-11-07T08:17:21.932Z,8.21
2018-11-07T08:19:50.981Z,8.17
2018-11-07T08:22:20.080Z,8.36
2018-11-07T08:24:49.126Z,8.56
2018-11-07T08:29:54.990Z,9.12
2018-11-07T08:34:59.305Z,9.16
2018-11-07T08:37:28.591Z,9.54
2018-11-07T08:39:57.615Z,9.98
2018-11-07T08:42:27.271Z,11.15
2018-11-07T08:44:56.217Z,11.69
2018-11-07T08:47:28.436Z,12.72
2018-11-07T08:49:57.693Z,16.01
2018-11-07T08:52:26.745Z,18.89
2018-11-07T08:54:55.854Z,20.51
2018-11-07T08:57:26.786Z,21.53
2018-11-07T08:59:55.837Z,23.76
2018-11-07T09:02:24.920Z,24.91
2018-11-07T09:04:53.960Z,25.18
2018-11-07T09:09:59.772Z,25.57
2018-11-07T09:15:04.653Z,26.85
2018-11-07T09:17:37.087Z,27.51
2018-11-07T09:20:06.248Z,25.37
2018-11-07T09:25:11.000Z,29.18
2018-11-07T09:27:40.132Z,27.42
2018-11-07T09:30:09.417Z,27.42
2018-11-07T09:32:38.499Z,24.75
2018-11-07T09:37:43.371Z,30.45
2018-11-07T09:40:14.683Z,29.96
2018-11-07T09:42:43.722Z,30.21
2018-11-07T09:45:12.783Z,27.20
2018-11-07T09:47:41.846Z,30.67
2018-11-07T09:50:10.917Z,31.69
2018-11-07T09:52:39.976Z,33.05
2018-11-07T09:55:09.251Z,32.33
2018-11-07T09:57:38.338Z,32.91
2018-11-07T10:00:07.386Z,32.40
2018-11-07T10:02:36.439Z,32.13
2018-11-07T10:05:05.496Z,31.47
2018-11-07T10:07:34.568Z,32.20
2018-11-07T10:10:03.685Z,33.27
2018-11-07T10:12:32.717Z,28.07
2018-11-07T10:15:02.022Z,24.82
2018-11-07T10:17:31.069Z,26.31
2018-11-07T10:20:00.123Z,24.45
2018-11-07T10:22:29.237Z,23.16
2018-11-07T10:24:58.302Z,22.78
2018-11-07T10:27:27.726Z,24.40
2018-11-07T10:29:56.811Z,25.97
2018-11-07T10:32:25.569Z,25.20
2018-11-07T10:34:54.623Z,26.04
2018-11-07T10:37:32.258Z,26.30
2018-11-07T10:39:52.802Z,24.83
2018-11-07T10:42:21.826Z,25.60
2018-11-07T10:44:50.871Z,27.30
2018-11-07T10:49:55.770Z,26.94
2018-11-07T10:52:29.094Z,27.83
2018-11-07T10:54:58.150Z,28.62
2018-11-07T11:00:03.064Z,34.36
2018-11-07T11:05:08.018Z,35.60
2018-11-07T11:10:12.897Z,33.50
2018-11-07T11:12:41.928Z,30.07
2018-11-07T11:15:10.979Z,29.22
2018-11-07T11:17:40.038Z,31.75
2018-11-07T11:20:10.099Z,35.49
2018-11-07T11:22:39.160Z,36.82
2018-11-07T11:25:08.202Z,37.25
2018-11-07T11:27:37.517Z,35.17
2018-11-07T11:30:07.357Z,28.62
2018-11-07T11:32:36.405Z,30.71
2018-11-07T11:37:41.257Z,34.38
2018-11-07T11:42:46.114Z,30.29
2018-11-07T11:47:51.118Z,28.62
2018-11-07T11:50:20.176Z,30.67
2018-11-07T11:52:49.204Z,27.50
2018-11-07T11:57:54.120Z,26.78
2018-11-07T12:00:23.181Z,28.47
2018-11-07T12:02:53.177Z,25.12
2018-11-07T12:05:22.237Z,25.50
2018-11-07T12:07:51.285Z,27.73
2018-11-07T12:10:20.340Z,25.86
2018-11-07T12:12:49.457Z,27.31
2018-11-07T12:15:18.518Z,29.53
2018-11-07T12:17:48.542Z,29.23
2018-11-07T12:20:17.759Z,28.82
2018-11-07T12:22:46.809Z,27.86
2018-11-07T12:27:51.726Z,27.25
2018-11-07T12:32:56.549Z,26.98
2018-11-07T12:35:26.941Z,25.99
2018-11-07T12:37:55.990Z,26.16
2018-11-07T12:40:26.054Z,26.82
2018-11-07T12:42:55.189Z,25.62
2018-11-07T12:45:24.177Z,24.86
2018-11-07T12:47:53.216Z,23.64
2018-11-07T12:50:22.354Z,23.00
2018-11-07T12:52:51.373Z,22.65
2018-11-07T12:55:20.451Z,21.71
2018-11-07T12:57:49.611Z,21.79
2018-11-07T13:00:18.602Z,21.32
2018-11-07T13:02:48.744Z,21.36
2018-11-07T13:05:17.722Z,21.86
2018-11-07T13:07:46.772Z,21.89
2018-11-07T13:10:15.824Z,21.81
2018-11-07T13:12:44.914Z,22.60
2018-11-07T13:15:13.981Z,26.41
2018-11-07T13:17:43.045Z,29.60
2018-11-07T13:20:12.094Z,30.66
2018-11-07T13:22:41.265Z,32.53
2018-11-07T13:27:46.086Z,32.32
2018-11-07T13:32:50.972Z,31.84
2018-11-07T13:35:20.038Z,30.08
2018-11-07T13:37:49.225Z,29.40
2018-11-07T13:40:19.130Z,28.77
2018-11-07T13:42:48.187Z,29.34
2018-11-07T13:47:53.081Z,29.83
2018-11-07T13:50:22.313Z,28.32
2018-11-07T13:52:51.355Z,28.53
2018-11-07T13:55:21.349Z,28.56
2018-11-07T13:57:50.465Z,27.09
2018-11-07T14:02:55.369Z,28.02
2018-11-07T14:05:24.505Z,26.77
2018-11-07T14:07:53.505Z,26.01
2018-11-07T14:10:22.572Z,26.48
2018-11-07T14:12:51.619Z,25.15
2018-11-07T14:15:20.690Z,24.37
2018-11-07T14:17:49.755Z,23.31
2018-11-07T14:20:18.823Z,23.01
2018-11-07T14:22:47.990Z,22.55
2018-11-07T14:25:17.089Z,22.45
2018-11-07T14:27:46.360Z,21.92
2018-11-07T14:30:15.263Z,21.83
2018-11-07T14:32:44.322Z,20.82
2018-11-07T14:35:13.425Z,21.48
2018-11-07T14:37:42.530Z,20.85
2018-11-07T14:40:11.577Z,20.12
2018-11-07T14:42:40.651Z,18.62
2018-11-07T14:45:09.769Z,18.54
2018-11-07T14:47:39.758Z,18.06
2018-11-07T14:50:08.874Z,17.66
2018-11-07T14:52:37.984Z,17.83
2018-11-07T14:57:43.139Z,17.90
2018-11-07T15:00:12.193Z,17.75
2018-11-07T15:02:41.385Z,17.86
2018-11-07T15:05:10.374Z,17.43
2018-11-07T15:10:15.173Z,16.97
2018-11-07T15:12:44.223Z,16.92
2018-11-07T15:15:14.270Z,16.42
2018-11-07T15:17:43.336Z,16.36
2018-11-07T15:20:12.395Z,16.19
2018-11-07T15:22:41.540Z,15.52
2018-11-07T15:25:10.735Z,15.69
2018-11-07T15:27:39.889Z,15.36
2018-11-07T15:30:09.872Z,15.18
2018-11-07T15:32:38.975Z,14.91
2018-11-07T15:35:08.054Z,14.71
2018-11-07T15:37:37.106Z,14.54
2018-11-07T15:40:06.175Z,14.13
2018-11-07T15:42:35.228Z,13.79
2018-11-07T15:45:04.305Z,13.67
2018-11-07T15:47:33.359Z,13.75
2018-11-07T15:50:02.413Z,13.58
2018-11-07T15:52:31.515Z,13.33
2018-11-07T15:55:00.553Z,13.31
2018-11-07T15:57:30.579Z,13.30
2018-11-07T15:59:59.841Z,13.05
2018-11-07T16:02:28.800Z,12.90
2018-11-07T16:04:57.863Z,12.82
2018-11-07T16:07:26.930Z,12.61
2018-11-07T16:09:56.011Z,12.47
2018-11-07T16:12:25.033Z,12.67
2018-11-07T16:14:54.096Z,12.60
2018-11-07T16:17:23.150Z,12.65
2018-11-07T16:19:52.217Z,12.60
2018-11-07T16:22:21.264Z,12.61
2018-11-07T16:24:50.313Z,12.73
2018-11-07T16:27:19.377Z,12.80
2018-11-07T16:29:48.439Z,12.86
2018-11-07T16:32:17.586Z,12.55
2018-11-07T16:34:46.676Z,12.44
2018-11-07T16:37:15.718Z,12.36
2018-11-07T16:39:44.777Z,12.42
2018-11-07T16:42:13.821Z,12.38
2018-11-07T16:44:42.873Z,12.32
2018-11-07T16:47:12.112Z,12.33
2018-11-07T16:49:41.025Z,12.23
2018-11-07T16:54:45.941Z,12.06
2018-11-07T16:57:15.022Z,11.96
2018-11-07T16:59:44.091Z,11.79
2018-11-07T17:02:13.137Z,11.81
2018-11-07T17:04:42.243Z,11.61
2018-11-07T17:07:12.249Z,11.54
2018-11-07T17:09:41.333Z,11.41
2018-11-07T17:12:10.384Z,11.36
2018-11-07T17:14:39.418Z,11.36
2018-11-07T17:19:45.138Z,11.20
2018-11-07T17:22:14.203Z,11.07
2018-11-07T17:24:43.266Z,10.86
2018-11-07T17:27:13.380Z,10.89
2018-11-07T17:29:42.376Z,10.73
2018-11-07T17:32:11.438Z,10.72
2018-11-07T17:34:40.501Z,10.67
2018-11-07T17:37:10.576Z,10.56
2018-11-07T17:39:39.596Z,10.54
2018-11-07T17:42:08.653Z,10.43
2018-11-07T17:44:37.701Z,10.44
2018-11-07T17:47:07.762Z,10.42
2018-11-07T17:49:36.825Z,10.23
2018-11-07T17:52:06.109Z,10.01
2018-11-07T17:54:35.152Z,9.88
2018-11-07T17:57:04.305Z,9.84
2018-11-07T18:02:09.101Z,9.74
2018-11-07T18:07:13.963Z,9.54
2018-11-07T18:09:43.057Z,9.44
2018-11-07T18:12:12.163Z,9.47
2018-11-07T18:14:41.210Z,9.30
2018-11-07T18:17:11.260Z,9.36
2018-11-07T18:19:40.317Z,9.46
2018-11-07T18:24:45.569Z,9.27
2018-11-07T18:27:15.609Z,9.02
2018-11-07T18:29:44.607Z,8.83
2018-11-07T18:32:13.701Z,8.80
2018-11-07T18:34:52.511Z,8.52
2018-11-07T18:37:22.182Z,8.53
2018-11-07T18:39:51.230Z,8.61
2018-11-07T18:44:55.971Z,8.76
2018-11-07T18:50:01.832Z,9.07
2018-11-07T18:52:31.735Z,9.19
2018-11-07T18:55:00.794Z,9.26
2018-11-07T18:57:29.893Z,9.25
2018-11-07T18:59:58.933Z,9.23
2018-11-07T19:02:27.997Z,9.18
2018-11-07T19:04:57.118Z,9.13
2018-11-07T19:10:02.891Z,8.97
2018-11-07T19:12:32.002Z,8.87
2018-11-07T19:15:00.994Z,8.80
2018-11-07T19:17:30.042Z,8.76
2018-11-07T19:20:01.021Z,8.81
2018-11-07T19:22:30.081Z,8.86
2018-11-07T19:24:59.131Z,8.80
2018-11-07T19:27:28.194Z,8.72
2018-11-07T19:29:57.242Z,8.68
2018-11-07T19:32:26.428Z,8.61
2018-11-07T19:34:55.501Z,8.54
2018-11-07T19:37:24.571Z,8.47
2018-11-07T19:39:53.637Z,8.35
2018-11-07T19:44:58.458Z,8.28
2018-11-07T19:50:04.328Z,8.12
2018-11-07T19:52:33.391Z,8.32
2018-11-07T19:55:03.398Z,8.56
2018-11-07T19:57:32.524Z,8.74
2018-11-07T20:00:01.575Z,8.77
2018-11-07T20:02:30.681Z,8.72
2018-11-07T20:05:01.775Z,8.70
2018-11-07T20:07:30.877Z,8.61
2018-11-07T20:10:01.931Z,8.69
2018-11-07T20:15:06.722Z,8.79
2018-11-07T20:17:37.785Z,8.86
2018-11-07T20:20:06.975Z,8.70
2018-11-07T20:22:36.012Z,8.54
2018-11-07T20:25:07.007Z,8.55
2018-11-07T20:27:36.078Z,8.62
2018-11-07T20:30:07.146Z,8.67
2018-11-07T20:32:36.220Z,8.90
2018-11-07T20:35:05.277Z,8.95
2018-11-07T20:37:38.379Z,9.02
2018-11-07T20:40:07.516Z,9.09
2018-11-07T20:42:36.546Z,9.07
2018-11-07T20:45:05.624Z,9.33
2018-11-07T20:47:34.693Z,9.48
2018-11-07T20:50:03.754Z,9.76
2018-11-07T20:52:32.888Z,9.70
2018-11-07T20:55:02.284Z,9.74
2018-11-07T20:57:31.284Z,9.64
2018-11-07T21:02:36.026Z,9.67
2018-11-07T21:07:40.772Z,9.72
2018-11-07T21:10:11.792Z,9.74
2018-11-07T21:12:40.821Z,9.81
2018-11-07T21:15:09.886Z,9.74
2018-11-07T21:17:38.981Z,9.73
2018-11-07T21:20:08.017Z,9.66
2018-11-07T21:22:37.065Z,9.62
2018-11-07T21:25:06.182Z,9.69
2018-11-07T21:27:35.282Z,9.73
2018-11-07T21:30:04.385Z,9.69
2018-11-07T21:32:33.451Z,9.59
2018-11-07T21:35:02.662Z,9.51
2018-11-07T21:37:31.679Z,9.51
2018-11-07T21:40:00.717Z,9.43
2018-11-07T21:42:29.774Z,9.39
2018-11-07T21:44:58.905Z,9.41
2018-11-07T21:47:41.643Z,9.45
2018-11-07T21:52:46.991Z,9.44
2018-11-07T21:55:16.033Z,9.40
2018-11-07T21:57:46.978Z,9.29
2018-11-07T22:00:16.039Z,9.30
2018-11-07T22:02:45.096Z,9.32
2018-11-07T22:05:14.113Z,9.30
2018-11-07T22:07:43.173Z,9.32
2018-11-07T22:10:12.226Z,9.24
2018-11-07T22:12:41.283Z,9.26
2018-11-07T22:15:10.324Z,9.12
2018-11-07T22:17:43.552Z,8.89
2018-11-07T22:20:12.597Z,8.79
2018-11-07T22:22:41.649Z,8.45
2018-11-07T22:25:10.699Z,8.22
2018-11-07T22:27:39.747Z,8.37
2018-11-07T22:30:08.822Z,8.31
2018-11-07T22:32:38.285Z,8.21
2018-11-07T22:35:07.336Z,8.28
2018-11-07T22:37:36.404Z,8.39
2018-11-07T22:40:05.753Z,8.41
2018-11-07T22:42:34.802Z,8.40
2018-11-07T22:45:03.858Z,8.44
2018-11-07T22:47:32.900Z,8.41
2018-11-07T22:50:01.989Z,8.40
2018-11-07T22:52:31.028Z,8.27
2018-11-07T22:55:00.178Z,8.27
2018-11-07T23:00:05.209Z,8.23
2018-11-07T23:02:34.294Z,8.20
2018-11-07T23:05:03.366Z,8.09
2018-11-07T23:07:36.018Z,7.96
2018-11-07T23:10:05.049Z,7.85
2018-11-07T23:15:09.845Z,7.70
2018-11-07T23:17:38.914Z,7.67
2018-11-07T23:20:08.121Z,7.71
2018-11-07T23:22:37.174Z,7.75
2018-11-07T23:25:06.227Z,7.89
2018-11-07T23:27:35.285Z,7.96
2018-11-07T23:30:05.272Z,7.95
2018-11-07T23:32:34.332Z,7.89
2018-11-07T23:35:03.452Z,7.98
2018-11-07T23:37:32.528Z,8.04
2018-11-07T23:40:01.594Z,8.09
2018-11-07T23:42:30.653Z,8.05
2018-11-07T23:47:35.580Z,8.03
2018-11-07T23:50:04.709Z,8.09
2018-11-07T23:52:33.773Z,8.16
2018-11-07T23:55:02.879Z,8.19
2018-11-07T23:57:32.887Z,8.19
